Time;durP1;ratioP1;P1;durP2;ratioP2;P2;SDS_P1;SDS_P2;PMS_P1;PMS_P2;Temp;Humidity;BMP_temperature;BMP_pressure;BME280_temperature;BME280_humidity;BME280_pressure;Samples;Min_cycle;Max_cycle;Signal;HPM_P1;HPM_P2
2023/07/09 00:01:44;;;;;;;2.00;1.90;;;23.80;43.40;;;;;;4996856;28;20457;-62
2023/07/09 00:04:11;;;;;;;2.00;1.90;;;23.80;43.40;;;;;;4995964;28;20472;-62
2023/07/09 00:06:38;;;;;;;1.90;1.80;;;23.80;43.30;;;;;;4998166;28;20231;-62
2023/07/09 00:09:04;;;;;;;1.80;1.70;;;23.80;43.50;;;;;;4994612;28;20504;-63
2023/07/09 00:11:30;;;;;;;2.20;2.10;;;23.70;43.30;;;;;;4995280;28;20464;-62
2023/07/09 00:13:56;;;;;;;2.00;1.90;;;23.70;43.20;;;;;;4993387;28;20449;-62
2023/07/09 00:16:25;;;;;;;2.07;1.97;;;23.80;43.30;;;;;;4995580;28;20491;-61
2023/07/09 00:18:51;;;;;;;1.80;1.70;;;23.80;43.40;;;;;;4994722;28;20251;-65
2023/07/09 00:21:20;;;;;;;2.13;2.03;;;23.80;43.50;;;;;;4997454;28;20457;-62
2023/07/09 00:23:48;;;;;;;1.90;1.80;;;23.80;43.40;;;;;;4991200;28;20239;-62
2023/07/09 00:26:14;;;;;;;2.40;2.30;;;23.70;43.30;;;;;;4995077;28;20457;-65
2023/07/09 00:28:41;;;;;;;1.83;1.73;;;23.80;43.30;;;;;;4994267;28;20471;-63
2023/07/09 00:31:14;;;;;;;1.90;1.80;;;23.70;43.30;;;;;;4992930;28;20461;-61
2023/07/09 00:33:41;;;;;;;2.10;2.00;;;23.70;43.30;;;;;;4992180;28;20488;-62
2023/07/09 00:36:25;;;;;;;2.10;1.87;;;23.70;43.30;;;;;;4997249;28;20493;-63
2023/07/09 00:38:51;;;;;;;2.10;2.00;;;23.70;43.30;;;;;;4995356;28;20481;-62
2023/07/09 00:41:22;;;;;;;2.10;2.00;;;23.70;43.30;;;;;;4996901;28;20539;-62
2023/07/09 00:43:49;;;;;;;2.00;1.90;;;23.70;43.30;;;;;;4995442;28;20472;-63
2023/07/09 00:46:25;;;;;;;2.10;2.00;;;23.70;43.30;;;;;;4997445;28;20500;-62
2023/07/09 00:48:58;;;;;;;1.90;1.80;;;23.70;43.30;;;;;;4992790;28;20640;-62
2023/07/09 00:51:25;;;;;;;2.07;1.97;;;23.70;43.30;;;;;;4995531;28;20473;-62
2023/07/09 00:53:58;;;;;;;1.90;1.80;;;23.70;43.30;;;;;;4993713;28;20457;-62
2023/07/09 00:56:33;;;;;;;2.20;2.10;;;23.70;44.10;;;;;;4996367;28;20531;-63
2023/07/09 00:59:04;;;;;;;2.00;1.90;;;23.70;43.40;;;;;;4994655;28;20469;-63
2023/07/09 01:01:30;;;;;;;1.90;1.80;;;23.70;43.40;;;;;;4996095;28;20455;-62
2023/07/09 01:03:59;;;;;;;1.90;1.80;;;23.70;43.40;;;;;;4991107;28;20480;-63
2023/07/09 01:06:38;;;;;;;1.80;1.70;;;23.70;43.40;;;;;;4995980;28;20988;-62
2023/07/09 01:09:06;;;;;;;2.10;2.00;;;23.70;43.40;;;;;;4993033;28;20766;-62
2023/07/09 01:11:31;;;;;;;1.80;1.70;;;23.70;43.50;;;;;;4994695;28;20453;-62
2023/07/09 01:14:01;;;;;;;2.10;2.00;;;23.70;43.50;;;;;;4993577;28;20505;-63
2023/07/09 01:16:30;;;;;;;1.93;1.83;;;23.70;43.40;;;;;;4995635;28;20270;-63
2023/07/09 01:18:56;;;;;;;1.97;1.87;;;23.70;43.40;;;;;;4990831;28;20474;-62
2023/07/09 01:21:21;;;;;;;1.73;1.63;;;23.70;43.40;;;;;;4994971;28;20476;-65
2023/07/09 01:23:49;;;;;;;1.80;1.70;;;23.70;43.40;;;;;;4993053;28;20706;-62
2023/07/09 01:26:18;;;;;;;2.10;2.00;;;23.70;43.40;;;;;;4997529;28;20231;-61
2023/07/09 01:28:44;;;;;;;2.10;2.00;;;23.70;43.50;;;;;;4995358;28;20476;-63
2023/07/09 01:31:11;;;;;;;1.97;1.87;;;23.70;43.50;;;;;;4995809;28;20461;-62
2023/07/09 01:33:39;;;;;;;2.10;2.00;;;23.70;43.40;;;;;;4995432;28;20220;-63
2023/07/09 01:36:06;;;;;;;3.57;1.80;;;23.70;43.40;;;;;;4995532;28;20461;-62
2023/07/09 01:38:32;;;;;;;1.70;1.60;;;23.70;43.50;;;;;;4993490;28;20469;-63
2023/07/09 01:40:58;;;;;;;1.73;1.63;;;23.70;43.50;;;;;;4996775;28;20457;-62
2023/07/09 01:43:25;;;;;;;1.70;1.60;;;23.70;43.50;;;;;;4993794;28;20488;-61
2023/07/09 01:45:51;;;;;;;1.83;1.73;;;23.70;43.50;;;;;;4994561;28;20449;-61
2023/07/09 01:48:19;;;;;;;1.83;1.73;;;23.70;43.50;;;;;;4994460;28;20497;-62
2023/07/09 01:50:49;;;;;;;1.77;1.67;;;23.70;43.50;;;;;;4995741;28;20468;-61
2023/07/09 01:53:17;;;;;;;2.10;2.00;;;23.70;43.50;;;;;;4995248;28;20442;-62
2023/07/09 01:55:44;;;;;;;2.07;1.97;;;23.70;43.50;;;;;;4996551;28;20564;-62
2023/07/09 01:58:10;;;;;;;1.90;1.80;;;23.70;43.50;;;;;;4996810;28;20473;-63
2023/07/09 02:00:37;;;;;;;1.83;1.73;;;23.70;43.50;;;;;;4993855;28;20511;-63
2023/07/09 02:03:04;;;;;;;3.07;1.70;;;23.70;43.50;;;;;;4995501;28;20543;-61
2023/07/09 02:05:32;;;;;;;1.77;1.67;;;23.70;43.50;;;;;;4994513;28;20461;-62
2023/07/09 02:07:57;;;;;;;1.97;1.87;;;23.70;43.50;;;;;;4998124;28;20526;-62
2023/07/09 02:10:23;;;;;;;2.13;2.03;;;23.70;43.50;;;;;;4994288;28;21237;-62
2023/07/09 02:12:49;;;;;;;2.10;2.00;;;23.70;43.50;;;;;;4994087;28;20232;-62
2023/07/09 02:15:15;;;;;;;2.07;1.97;;;23.70;43.50;;;;;;4997253;28;20226;-64
2023/07/09 02:17:41;;;;;;;2.37;2.27;;;23.70;44.30;;;;;;4998560;28;20266;-62
2023/07/09 02:20:09;;;;;;;1.90;1.80;;;23.70;43.60;;;;;;4996653;28;21348;-63
2023/07/09 02:22:36;;;;;;;1.83;1.73;;;23.70;43.50;;;;;;4997819;28;20622;-62
2023/07/09 02:25:03;;;;;;;1.90;1.80;;;23.70;43.60;;;;;;4995453;28;21005;-62
2023/07/09 02:27:28;;;;;;;2.33;2.23;;;23.70;43.60;;;;;;4997582;28;20481;-61
2023/07/09 02:29:54;;;;;;;1.87;1.77;;;23.70;43.60;;;;;;4999738;28;20499;-62
2023/07/09 02:32:22;;;;;;;1.80;1.70;;;23.70;43.50;;;;;;4996460;28;20675;-62
2023/07/09 02:34:48;;;;;;;1.90;1.80;;;23.70;43.50;;;;;;4997532;28;20228;-62
2023/07/09 02:37:17;;;;;;;1.87;1.77;;;23.70;43.50;;;;;;4999954;28;20484;-62
2023/07/09 02:39:43;;;;;;;1.83;1.73;;;23.70;43.60;;;;;;4998475;28;20471;-63
2023/07/09 02:42:11;;;;;;;2.00;1.90;;;23.70;43.50;;;;;;4997141;28;20453;-65
2023/07/09 02:44:36;;;;;;;2.07;1.97;;;23.70;43.60;;;;;;4996643;28;20238;-62
2023/07/09 02:47:02;;;;;;;2.50;2.40;;;23.70;43.50;;;;;;4997560;28;20457;-63
2023/07/09 02:49:28;;;;;;;2.33;1.77;;;23.70;43.60;;;;;;4996277;28;20302;-61
2023/07/09 02:51:53;;;;;;;2.10;2.00;;;23.70;43.60;;;;;;4983182;28;20676;-62
2023/07/09 02:54:19;;;;;;;2.00;1.80;;;23.70;43.60;;;;;;4998050;28;20228;-61
2023/07/09 02:56:44;;;;;;;1.67;1.57;;;23.70;43.60;;;;;;4996657;28;20277;-64
2023/07/09 02:59:11;;;;;;;1.97;1.87;;;23.70;43.60;;;;;;4993639;28;20227;-61
2023/07/09 03:01:36;;;;;;;1.97;1.87;;;23.70;43.60;;;;;;4999163;28;20255;-61
2023/07/09 03:04:03;;;;;;;1.90;1.80;;;23.70;43.70;;;;;;4997597;28;20604;-62
2023/07/09 03:06:29;;;;;;;1.90;1.80;;;23.70;43.60;;;;;;4993574;28;20859;-61
2023/07/09 03:08:54;;;;;;;1.83;1.73;;;23.70;43.60;;;;;;4996853;28;20469;-62
2023/07/09 03:11:21;;;;;;;2.50;2.40;;;23.70;43.60;;;;;;4997444;28;20531;-62
2023/07/09 03:13:47;;;;;;;2.00;1.90;;;23.70;43.60;;;;;;4994249;28;22177;-62
2023/07/09 03:16:14;;;;;;;2.10;2.00;;;23.70;43.60;;;;;;4998184;28;20474;-63
2023/07/09 03:18:39;;;;;;;2.20;2.10;;;23.70;43.60;;;;;;4993424;28;20473;-64
2023/07/09 03:21:05;;;;;;;2.40;2.30;;;23.70;43.60;;;;;;4996571;28;20472;-62
2023/07/09 03:23:31;;;;;;;2.07;1.97;;;23.70;43.60;;;;;;4984467;28;20227;-62
2023/07/09 03:25:57;;;;;;;1.80;1.70;;;23.70;43.60;;;;;;4995902;28;20235;-62
2023/07/09 03:28:23;;;;;;;1.90;1.80;;;23.70;43.60;;;;;;4996080;28;20216;-62
2023/07/09 03:30:49;;;;;;;1.73;1.60;;;23.70;43.60;;;;;;4995841;28;20519;-63
2023/07/09 03:33:16;;;;;;;2.10;2.00;;;23.70;43.70;;;;;;4995092;28;20220;-62
2023/07/09 03:35:43;;;;;;;2.00;1.90;;;23.70;43.60;;;;;;4996867;28;20457;-63
2023/07/09 03:38:10;;;;;;;1.97;1.80;;;23.70;43.60;;;;;;4995889;28;20534;-63
2023/07/09 03:40:37;;;;;;;1.80;1.70;;;23.70;43.70;;;;;;4997759;28;20481;-63
2023/07/09 03:43:06;;;;;;;1.87;1.77;;;23.70;43.70;;;;;;4997338;28;20944;-64
2023/07/09 03:45:35;;;;;;;1.73;1.63;;;23.70;43.70;;;;;;4998586;28;20536;-64
2023/07/09 03:48:01;;;;;;;2.07;1.97;;;23.70;43.70;;;;;;4995448;28;20446;-62
2023/07/09 03:50:26;;;;;;;2.13;2.03;;;23.70;43.70;;;;;;4994183;28;20465;-62
2023/07/09 03:52:52;;;;;;;1.90;1.80;;;23.70;43.70;;;;;;4981179;28;20235;-63
2023/07/09 03:55:18;;;;;;;2.10;2.00;;;23.70;43.70;;;;;;4996251;28;20250;-62
2023/07/09 03:57:44;;;;;;;2.13;2.03;;;23.70;43.70;;;;;;4996135;28;20836;-62
2023/07/09 04:00:12;;;;;;;2.40;2.30;;;23.70;43.70;;;;;;4995327;28;20301;-64
2023/07/09 04:02:39;;;;;;;2.20;2.10;;;23.70;43.70;;;;;;4995115;28;20243;-62
2023/07/09 04:05:06;;;;;;;2.20;2.10;;;23.70;43.70;;;;;;4995826;28;21364;-63
2023/07/09 04:07:31;;;;;;;2.17;2.07;;;23.70;43.70;;;;;;4996162;28;20456;-62
2023/07/09 04:09:57;;;;;;;2.00;1.90;;;23.70;43.70;;;;;;4993613;28;20458;-61
2023/07/09 04:12:22;;;;;;;1.67;1.57;;;23.60;44.40;;;;;;4995561;28;20339;-64
2023/07/09 04:14:48;;;;;;;2.20;2.10;;;23.70;43.70;;;;;;4996504;28;20281;-62
2023/07/09 04:17:13;;;;;;;2.30;2.20;;;23.70;43.70;;;;;;4994197;28;20269;-63
2023/07/09 04:19:39;;;;;;;2.20;2.10;;;23.60;43.60;;;;;;4994178;28;20239;-62
2023/07/09 04:22:05;;;;;;;2.17;2.07;;;23.70;43.70;;;;;;4995749;28;20262;-62
2023/07/09 04:24:31;;;;;;;2.00;1.90;;;23.70;43.70;;;;;;4995481;28;20318;-62
2023/07/09 04:26:57;;;;;;;2.00;1.90;;;23.60;43.60;;;;;;4997195;28;20254;-62
2023/07/09 04:29:23;;;;;;;2.00;1.90;;;23.60;43.60;;;;;;4996844;28;21273;-61
2023/07/09 04:31:49;;;;;;;1.90;1.80;;;23.70;43.70;;;;;;4996226;28;20234;-62
2023/07/09 04:34:14;;;;;;;1.90;1.80;;;23.60;43.70;;;;;;4996800;28;20465;-63
2023/07/09 04:36:40;;;;;;;2.20;2.10;;;23.60;43.60;;;;;;4994079;28;20216;-62
2023/07/09 04:39:06;;;;;;;2.00;1.90;;;23.70;43.80;;;;;;4995684;28;20712;-62
2023/07/09 04:41:33;;;;;;;2.07;1.97;;;23.70;43.70;;;;;;4996515;28;20691;-62
2023/07/09 04:43:58;;;;;;;1.97;1.87;;;23.70;43.70;;;;;;4993639;28;20235;-62
2023/07/09 04:46:24;;;;;;;2.17;2.00;;;23.70;43.70;;;;;;4996925;28;20457;-61
2023/07/09 04:48:49;;;;;;;2.03;1.93;;;23.70;43.70;;;;;;4991972;28;20218;-62
2023/07/09 04:51:15;;;;;;;1.90;1.80;;;23.70;43.70;;;;;;4996624;28;20231;-61
2023/07/09 04:53:42;;;;;;;2.27;2.07;;;23.70;43.70;;;;;;4993982;28;20227;-64
2023/07/09 04:56:07;;;;;;;2.33;2.23;;;23.70;43.60;;;;;;4994339;28;20355;-63
2023/07/09 04:58:34;;;;;;;1.97;1.87;;;23.70;43.70;;;;;;4995495;28;20461;-61
2023/07/09 05:01:00;;;;;;;2.13;2.03;;;23.70;43.60;;;;;;4995893;28;20364;-64
2023/07/09 05:03:26;;;;;;;2.30;2.20;;;23.80;43.70;;;;;;4991983;28;20467;-62
2023/07/09 05:05:51;;;;;;;2.40;2.30;;;23.80;43.70;;;;;;4996167;28;20461;-62
2023/07/09 05:08:17;;;;;;;2.13;2.03;;;23.80;43.70;;;;;;4996889;28;20263;-62
2023/07/09 05:10:45;;;;;;;2.00;1.90;;;23.80;43.70;;;;;;4994419;28;20231;-62
2023/07/09 05:13:11;;;;;;;1.90;1.80;;;23.80;43.70;;;;;;4998319;28;20449;-61
2023/07/09 05:15:40;;;;;;;2.10;2.00;;;23.80;43.70;;;;;;4994889;28;20807;-61
2023/07/09 05:18:07;;;;;;;1.90;1.80;;;23.80;43.70;;;;;;4992934;28;20470;-62
2023/07/09 05:20:33;;;;;;;2.13;2.03;;;23.80;43.60;;;;;;4996580;28;20985;-61
2023/07/09 05:22:59;;;;;;;2.17;2.07;;;23.80;43.60;;;;;;4994586;28;20457;-61
2023/07/09 05:25:24;;;;;;;1.80;1.70;;;23.80;43.60;;;;;;4993640;28;20219;-62
2023/07/09 05:27:51;;;;;;;2.10;2.00;;;23.80;43.70;;;;;;4996357;28;20687;-63
2023/07/09 05:30:17;;;;;;;2.40;2.30;;;23.80;43.70;;;;;;4994525;28;20910;-61
2023/07/09 05:32:42;;;;;;;2.30;2.13;;;23.80;43.60;;;;;;4991712;28;20467;-61
2023/07/09 05:35:09;;;;;;;2.00;1.90;;;23.80;44.40;;;;;;4993216;28;20977;-64
2023/07/09 05:37:35;;;;;;;2.33;2.23;;;23.80;43.70;;;;;;4996546;28;20231;-62
2023/07/09 05:40:01;;;;;;;2.00;1.90;;;23.80;43.60;;;;;;4995030;28;20445;-62
2023/07/09 05:42:26;;;;;;;2.07;1.97;;;23.80;43.70;;;;;;4995258;28;20971;-61
2023/07/09 05:44:52;;;;;;;2.43;2.33;;;23.80;43.70;;;;;;4991988;28;20242;-62
2023/07/09 05:47:18;;;;;;;2.40;2.30;;;23.80;43.70;;;;;;4994250;28;20251;-62
2023/07/09 05:49:45;;;;;;;2.23;2.13;;;23.80;43.70;;;;;;4995520;28;20691;-62
2023/07/09 05:52:10;;;;;;;2.10;2.00;;;23.80;43.70;;;;;;4996969;28;20280;-62
2023/07/09 05:54:36;;;;;;;2.20;2.10;;;23.80;43.70;;;;;;4997651;28;20445;-63
2023/07/09 05:57:01;;;;;;;2.23;2.13;;;23.80;43.60;;;;;;4999643;28;20257;-62
2023/07/09 05:59:27;;;;;;;1.87;1.77;;;23.80;43.70;;;;;;4996511;28;20231;-63
2023/07/09 06:01:53;;;;;;;1.93;1.83;;;23.80;43.70;;;;;;4997814;28;20289;-62
2023/07/09 06:04:18;;;;;;;2.20;2.10;;;23.80;43.70;;;;;;4995834;28;20675;-62
2023/07/09 06:06:45;;;;;;;2.40;2.30;;;23.80;43.70;;;;;;4997668;28;20295;-62
2023/07/09 06:09:10;;;;;;;1.93;1.83;;;23.90;43.70;;;;;;4997706;28;20227;-65
2023/07/09 06:11:36;;;;;;;2.00;1.90;;;23.90;43.70;;;;;;4997771;28;20454;-63
2023/07/09 06:14:02;;;;;;;2.27;2.17;;;23.90;43.80;;;;;;4996005;28;20219;-62
2023/07/09 06:16:27;;;;;;;2.20;2.10;;;23.90;43.70;;;;;;5001311;28;20360;-62
2023/07/09 06:18:53;;;;;;;2.47;2.37;;;23.90;43.70;;;;;;4996688;28;20988;-63
2023/07/09 06:21:19;;;;;;;2.00;1.90;;;23.90;43.80;;;;;;4996950;28;20555;-61
2023/07/09 06:23:47;;;;;;;2.13;1.80;;;23.90;43.80;;;;;;4999113;28;20665;-65
2023/07/09 06:26:13;;;;;;;2.57;2.47;;;23.90;43.70;;;;;;5001105;28;20223;-62
2023/07/09 06:28:39;;;;;;;2.27;2.07;;;23.90;43.70;;;;;;4998532;28;20465;-61
2023/07/09 06:31:04;;;;;;;2.27;2.17;;;23.90;43.80;;;;;;4997566;28;20286;-63
2023/07/09 06:33:30;;;;;;;1.83;1.73;;;23.90;43.80;;;;;;4998697;28;20268;-61
2023/07/09 06:35:59;;;;;;;2.57;2.47;;;23.90;43.80;;;;;;4997830;28;20228;-61
2023/07/09 06:38:25;;;;;;;2.33;2.23;;;23.90;43.80;;;;;;4997054;28;20342;-61
2023/07/09 06:40:51;;;;;;;1.80;1.70;;;23.90;43.80;;;;;;4998192;28;20480;-63
2023/07/09 06:43:18;;;;;;;2.30;2.20;;;23.90;43.80;;;;;;4995843;28;20464;-61
2023/07/09 06:45:53;;;;;;;2.17;1.90;;;23.90;43.80;;;;;;4998901;28;20231;-61
2023/07/09 06:48:20;;;;;;;2.30;2.20;;;23.90;43.70;;;;;;4997001;28;20821;-61
2023/07/09 06:50:46;;;;;;;2.20;2.10;;;23.90;43.80;;;;;;4998826;28;20550;-62
2023/07/09 06:53:12;;;;;;;2.30;2.20;;;23.90;43.80;;;;;;4998990;28;21008;-65
2023/07/09 06:55:37;;;;;;;2.23;2.13;;;23.90;43.80;;;;;;4998095;28;20464;-64
2023/07/09 06:58:03;;;;;;;2.60;2.40;;;23.90;43.80;;;;;;4995860;28;20259;-62
2023/07/09 07:00:29;;;;;;;2.30;2.20;;;23.90;43.70;;;;;;4997584;28;20227;-63
2023/07/09 07:02:54;;;;;;;2.17;2.07;;;23.90;43.80;;;;;;4995712;28;20270;-66
2023/07/09 07:05:20;;;;;;;2.10;2.00;;;23.90;43.80;;;;;;4996854;28;20258;-61
2023/07/09 07:07:45;;;;;;;2.10;2.00;;;23.90;43.70;;;;;;4996963;28;20225;-62
2023/07/09 07:10:11;;;;;;;2.20;2.10;;;23.90;43.90;;;;;;4998541;28;20223;-62
2023/07/09 07:12:45;;;;;;;2.00;1.90;;;23.90;43.80;;;;;;4996309;28;20301;-62
2023/07/09 07:15:13;;;;;;;2.10;2.00;;;23.90;43.80;;;;;;4996455;28;20222;-63
2023/07/09 07:17:39;;;;;;;7.53;2.50;;;23.90;43.80;;;;;;4993734;28;20473;-62
2023/07/09 07:20:05;;;;;;;1.93;1.83;;;24.00;43.90;;;;;;4995314;28;20522;-64
2023/07/09 07:22:31;;;;;;;2.00;1.90;;;24.00;43.90;;;;;;4993429;28;20712;-62
2023/07/09 07:24:57;;;;;;;1.93;1.83;;;24.00;43.90;;;;;;4995625;28;20519;-62
2023/07/09 07:27:22;;;;;;;2.37;2.27;;;24.00;43.90;;;;;;4995068;28;20667;-63
2023/07/09 07:29:48;;;;;;;2.50;2.30;;;24.00;43.90;;;;;;4996803;28;20227;-61
2023/07/09 07:32:13;;;;;;;2.67;2.57;;;24.00;43.90;;;;;;4994242;28;20228;-63
2023/07/09 07:34:39;;;;;;;2.27;2.17;;;24.00;43.90;;;;;;4994295;28;20293;-61
2023/07/09 07:37:04;;;;;;;2.17;2.07;;;24.00;43.90;;;;;;4997844;28;20215;-62
2023/07/09 07:39:30;;;;;;;2.47;2.37;;;24.00;43.90;;;;;;4995280;28;20238;-62
2023/07/09 07:41:56;;;;;;;2.20;2.10;;;24.00;43.90;;;;;;4995910;28;20219;-62
2023/07/09 07:44:22;;;;;;;2.50;2.40;;;24.00;43.90;;;;;;4998105;28;20901;-63
2023/07/09 07:46:47;;;;;;;2.40;2.30;;;24.00;43.90;;;;;;4997649;28;20220;-62
2023/07/09 07:49:13;;;;;;;2.20;2.10;;;24.00;43.90;;;;;;4994174;28;20461;-62
2023/07/09 07:51:39;;;;;;;2.70;2.50;;;24.00;43.90;;;;;;4995387;28;20226;-61
2023/07/09 07:54:05;;;;;;;2.50;2.40;;;24.00;44.00;;;;;;4995390;28;20226;-62
2023/07/09 07:56:30;;;;;;;2.50;2.40;;;24.00;43.90;;;;;;4996605;28;20219;-62
2023/07/09 07:58:56;;;;;;;1.97;1.87;;;24.00;44.00;;;;;;4995886;28;20235;-64
2023/07/09 08:01:21;;;;;;;2.53;2.43;;;24.00;44.00;;;;;;4996446;28;20223;-62
2023/07/09 08:03:47;;;;;;;2.40;2.30;;;24.00;44.00;;;;;;4996782;28;20225;-61
2023/07/09 08:06:12;;;;;;;2.43;2.33;;;24.00;44.00;;;;;;4996981;28;20578;-62
2023/07/09 08:08:38;;;;;;;2.43;2.33;;;24.00;44.00;;;;;;4975348;28;20258;-63
2023/07/09 08:11:07;;;;;;;2.13;2.03;;;24.00;44.00;;;;;;4997364;28;20277;-64
2023/07/09 08:13:34;;;;;;;2.40;2.30;;;24.00;44.00;;;;;;4991740;28;20335;-63
2023/07/09 08:16:00;;;;;;;2.33;2.23;;;24.00;44.00;;;;;;4996659;28;20449;-61
2023/07/09 08:18:25;;;;;;;2.50;2.40;;;24.00;44.00;;;;;;4996311;28;20870;-61
2023/07/09 08:20:51;;;;;;;2.47;2.37;;;24.00;44.00;;;;;;4996555;28;20277;-63
2023/07/09 08:23:16;;;;;;;2.83;2.73;;;24.00;44.00;;;;;;4992656;28;20223;-61
2023/07/09 08:25:42;;;;;;;2.43;2.33;;;24.00;44.00;;;;;;4997873;28;20219;-63
2023/07/09 08:28:07;;;;;;;2.30;2.20;;;24.00;44.00;;;;;;4995846;28;20739;-62
2023/07/09 08:30:34;;;;;;;2.30;2.10;;;24.00;44.80;;;;;;4997594;28;20215;-62
2023/07/09 08:33:00;;;;;;;2.60;2.40;;;24.00;44.00;;;;;;4996665;28;20232;-62
2023/07/09 08:35:26;;;;;;;2.20;2.10;;;24.00;44.10;;;;;;4996238;28;20461;-62
2023/07/09 08:37:51;;;;;;;2.43;2.33;;;24.00;44.10;;;;;;4994190;28;20484;-61
2023/07/09 08:40:18;;;;;;;2.77;2.57;;;24.00;44.10;;;;;;4991034;28;20686;-62
2023/07/09 08:42:46;;;;;;;2.20;2.10;;;24.00;44.00;;;;;;4997655;28;20670;-62
2023/07/09 08:45:54;;;;;;;2.30;2.20;;;24.00;44.20;;;;;;4996550;28;20457;-64
2023/07/09 08:48:32;;;;;;;2.20;2.10;;;24.00;44.10;;;;;;4995087;28;20460;-61
2023/07/09 08:51:07;;;;;;;2.37;2.27;;;24.00;44.10;;;;;;4979939;28;20576;-61
2023/07/09 08:54:04;;;;;;;2.20;2.10;;;24.00;44.10;;;;;;4993667;28;20456;-61
2023/07/09 08:56:33;;;;;;;2.60;2.50;;;24.00;44.10;;;;;;4991046;28;20459;-62
2023/07/09 08:59:01;;;;;;;2.17;2.07;;;24.00;44.20;;;;;;4991844;28;20465;-61
2023/07/09 09:01:39;;;;;;;2.10;2.00;;;24.00;44.20;;;;;;4994056;28;20453;-61
2023/07/09 09:04:13;;;;;;;2.50;2.40;;;24.00;44.10;;;;;;4991449;28;20937;-61
2023/07/09 09:06:42;;;;;;;2.93;2.73;;;24.00;44.20;;;;;;4994749;28;20523;-62
2023/07/09 09:09:30;;;;;;;2.73;2.63;;;24.00;44.10;;;;;;4996159;28;20507;-62
2023/07/09 09:12:08;;;;;;;2.43;2.33;;;24.00;44.10;;;;;;4992186;28;20476;-62
2023/07/09 09:14:41;;;;;;;2.70;2.50;;;24.00;44.10;;;;;;4996353;28;20455;-63
2023/07/09 09:17:13;;;;;;;2.73;2.63;;;24.00;44.20;;;;;;4995511;28;20461;-61
2023/07/09 09:19:45;;;;;;;2.40;2.30;;;24.00;44.20;;;;;;4991063;28;20827;-65
2023/07/09 09:22:13;;;;;;;3.20;3.00;;;24.00;44.20;;;;;;4994078;28;20627;-62
2023/07/09 09:25:04;;;;;;;2.70;2.60;;;24.00;44.20;;;;;;4992959;28;20514;-62
2023/07/09 09:27:30;;;;;;;2.30;2.20;;;24.00;44.20;;;;;;4995047;28;20445;-62
2023/07/09 09:29:56;;;;;;;2.57;2.47;;;24.00;44.20;;;;;;4993960;28;20476;-62
2023/07/09 09:32:30;;;;;;;2.37;2.27;;;24.00;44.20;;;;;;4995715;28;20249;-62
2023/07/09 09:34:57;;;;;;;2.50;2.40;;;24.10;44.30;;;;;;4979239;28;20222;-62
2023/07/09 09:37:31;;;;;;;2.70;2.60;;;24.10;44.30;;;;;;4994503;28;20495;-62
2023/07/09 09:39:59;;;;;;;2.73;2.63;;;24.00;44.20;;;;;;4991295;28;21102;-63
2023/07/09 09:42:25;;;;;;;2.50;2.40;;;24.10;44.30;;;;;;4994680;28;20547;-62
2023/07/09 09:44:54;;;;;;;2.47;2.37;;;24.10;44.30;;;;;;4994447;28;20480;-64
2023/07/09 09:47:20;;;;;;;2.70;2.60;;;24.00;44.20;;;;;;4992807;28;20462;-62
2023/07/09 09:49:46;;;;;;;2.60;2.50;;;24.10;44.40;;;;;;4994710;28;20457;-62
2023/07/09 09:52:14;;;;;;;2.50;2.40;;;24.10;44.40;;;;;;4993122;28;20475;-64
2023/07/09 09:54:44;;;;;;;2.30;2.20;;;24.10;44.30;;;;;;4995943;28;20790;-64
2023/07/09 09:57:23;;;;;;;2.67;2.57;;;24.10;44.30;;;;;;4992491;28;20960;-62
2023/07/09 09:59:50;;;;;;;2.90;2.70;;;24.10;45.10;;;;;;4995180;28;20464;-62
2023/07/09 10:02:19;;;;;;;2.47;2.37;;;24.10;44.40;;;;;;4991912;28;20453;-62
2023/07/09 10:04:45;;;;;;;2.90;2.80;;;24.10;44.40;;;;;;4992776;28;20468;-63
2023/07/09 10:07:29;;;;;;;2.50;2.40;;;24.10;44.30;;;;;;4994171;28;20457;-63
2023/07/09 10:09:55;;;;;;;2.53;2.43;;;24.10;44.30;;;;;;4993375;28;20468;-62
2023/07/09 10:12:47;;;;;;;3.10;2.97;;;24.10;44.40;;;;;;4995080;28;20458;-62
2023/07/09 10:15:16;;;;;;;2.20;2.10;;;24.10;44.40;;;;;;4992868;28;20294;-63
2023/07/09 10:17:50;;;;;;;2.57;2.47;;;24.10;44.40;;;;;;4993270;28;20461;-63
2023/07/09 10:20:40;;;;;;;2.23;2.13;;;24.10;44.30;;;;;;4993414;28;20480;-63
2023/07/09 10:23:28;;;;;;;2.20;2.10;;;24.10;44.40;;;;;;4994169;28;20523;-63
2023/07/09 10:26:14;;;;;;;2.30;2.20;;;24.10;44.30;;;;;;4995992;28;20491;-63
2023/07/09 10:29:18;;;;;;;2.47;2.37;;;24.10;44.50;;;;;;4980364;28;20615;-65
2023/07/09 10:31:52;;;;;;;2.97;2.83;;;24.10;44.40;;;;;;4992804;28;20492;-62
2023/07/09 10:34:29;;;;;;;2.60;2.50;;;24.10;44.50;;;;;;4990493;28;20783;-62
2023/07/09 10:37:20;;;;;;;2.77;2.67;;;24.10;44.50;;;;;;4993247;28;20452;-65
2023/07/09 10:39:51;;;;;;;2.60;2.40;;;24.10;44.50;;;;;;4996266;28;20487;-61
2023/07/09 10:42:24;;;;;;;2.60;2.40;;;24.10;44.50;;;;;;4997494;28;20461;-62
2023/07/09 10:45:01;;;;;;;2.80;2.60;;;24.10;44.50;;;;;;4998742;28;20460;-66
2023/07/09 10:47:57;;;;;;;2.43;2.33;;;24.10;44.50;;;;;;4997633;28;20476;-61
2023/07/09 10:50:41;;;;;;;2.47;2.30;;;24.10;44.50;;;;;;4997792;28;20464;-65
2023/07/09 10:53:42;;;;;;;2.57;2.43;;;24.10;44.50;;;;;;4996138;28;20539;-62
2023/07/09 10:56:19;;;;;;;2.83;2.73;;;24.10;44.50;;;;;;4992588;28;20992;-63
2023/07/09 10:58:56;;;;;;;2.53;2.43;;;24.10;44.50;;;;;;4993547;28;20512;-62
2023/07/09 11:01:32;;;;;;;2.33;2.23;;;24.10;44.50;;;;;;4998093;28;20528;-64
2023/07/09 11:04:06;;;;;;;2.80;2.60;;;24.10;44.50;;;;;;4995446;28;20465;-62
2023/07/09 11:06:41;;;;;;;2.60;2.50;;;24.10;44.50;;;;;;4987059;28;20470;-64
2023/07/09 11:09:34;;;;;;;2.80;2.70;;;24.10;44.50;;;;;;4978609;28;20979;-63
2023/07/09 11:12:08;;;;;;;2.70;2.60;;;24.10;44.50;;;;;;4995500;28;20961;-62
2023/07/09 11:15:00;;;;;;;2.70;2.60;;;24.10;44.50;;;;;;4995491;28;20449;-62
2023/07/09 11:17:28;;;;;;;2.30;2.20;;;24.10;44.50;;;;;;4995670;28;20520;-63
2023/07/09 11:20:06;;;;;;;2.70;2.60;;;24.10;44.50;;;;;;4997294;28;21128;-64
2023/07/09 11:22:40;;;;;;;2.87;2.73;;;24.10;44.50;;;;;;4995045;28;20460;-62
2023/07/09 11:25:05;;;;;;;2.60;2.50;;;24.20;44.60;;;;;;4999697;28;20556;-64
2023/07/09 11:27:31;;;;;;;2.97;2.80;;;24.20;44.60;;;;;;4999449;28;20857;-62
2023/07/09 11:30:01;;;;;;;2.50;2.40;;;24.20;44.60;;;;;;4995014;28;20231;-62
2023/07/09 11:32:28;;;;;;;2.20;2.10;;;24.20;44.60;;;;;;4997448;28;20475;-64
2023/07/09 11:34:53;;;;;;;2.37;2.27;;;24.20;44.60;;;;;;4993628;28;20467;-65
2023/07/09 11:37:26;;;;;;;2.30;2.20;;;24.20;44.60;;;;;;4997257;28;20453;-62
2023/07/09 11:39:51;;;;;;;2.50;2.40;;;24.20;44.60;;;;;;4994331;28;20226;-63
2023/07/09 11:42:34;;;;;;;2.60;2.40;;;24.20;44.60;;;;;;4996444;28;20446;-62
2023/07/09 11:45:13;;;;;;;2.83;2.73;;;24.20;44.50;;;;;;4994179;28;20285;-63
2023/07/09 11:47:47;;;;;;;2.50;2.40;;;24.20;44.60;;;;;;4993467;28;20468;-64
2023/07/09 11:50:45;;;;;;;2.60;2.50;;;24.20;44.60;;;;;;4997325;28;20460;-62
2023/07/09 11:53:40;;;;;;;2.40;2.30;;;24.20;44.60;;;;;;4983701;28;20463;-62
2023/07/09 11:56:08;;;;;;;2.60;2.40;;;24.20;44.60;;;;;;4998300;28;20457;-63
2023/07/09 11:58:34;;;;;;;3.27;3.07;;;24.20;44.60;;;;;;4994929;28;22292;-62
2023/07/09 12:01:01;;;;;;;2.50;2.40;;;24.20;44.70;;;;;;4995281;28;20460;-62
2023/07/09 12:03:32;;;;;;;2.77;2.67;;;24.20;44.60;;;;;;4994897;28;20220;-62
2023/07/09 12:06:13;;;;;;;2.50;2.40;;;24.20;44.70;;;;;;4996667;28;23588;-62
2023/07/09 12:08:41;;;;;;;2.50;2.40;;;24.20;44.60;;;;;;4996048;28;20453;-62
2023/07/09 12:11:19;;;;;;;2.50;2.40;;;24.20;44.60;;;;;;4995234;28;20540;-63
2023/07/09 12:13:44;;;;;;;2.43;2.33;;;24.20;44.60;;;;;;4993024;28;20988;-62
2023/07/09 12:16:31;;;;;;;2.93;2.73;;;24.20;44.70;;;;;;4996255;28;20467;-62
2023/07/09 12:18:57;;;;;;;2.93;2.73;;;24.20;44.60;;;;;;4993207;28;20691;-62
2023/07/09 12:21:24;;;;;;;2.87;2.77;;;24.20;44.70;;;;;;4994497;28;20577;-63
2023/07/09 12:23:50;;;;;;;3.00;2.80;;;24.20;44.70;;;;;;4993262;28;20543;-62
2023/07/09 12:26:18;;;;;;;2.50;2.40;;;24.20;44.70;;;;;;4997953;28;20468;-63
2023/07/09 12:28:51;;;;;;;2.50;2.40;;;24.20;44.70;;;;;;4995194;28;20329;-65
2023/07/09 12:31:17;;;;;;;2.60;2.50;;;24.20;44.70;;;;;;4998362;28;20458;-61
2023/07/09 12:33:51;;;;;;;2.70;2.60;;;24.20;44.70;;;;;;4996275;28;20786;-62
2023/07/09 12:36:18;;;;;;;2.80;2.60;;;24.20;44.70;;;;;;4994446;28;20580;-61
2023/07/09 12:38:48;;;;;;;2.53;2.43;;;24.20;44.70;;;;;;4993327;28;20480;-63
2023/07/09 12:41:23;;;;;;;2.83;2.70;;;24.20;44.70;;;;;;4995311;28;20446;-62
2023/07/09 12:43:49;;;;;;;2.67;2.57;;;24.20;44.80;;;;;;4995624;28;20889;-62
2023/07/09 12:46:16;;;;;;;2.57;2.47;;;24.20;44.70;;;;;;4995523;28;20465;-62
2023/07/09 12:48:43;;;;;;;2.60;2.40;;;24.20;44.70;;;;;;4995702;28;20455;-63
2023/07/09 12:51:08;;;;;;;2.67;2.57;;;24.20;44.80;;;;;;4996770;28;20469;-63
2023/07/09 12:53:37;;;;;;;2.73;2.63;;;24.20;44.70;;;;;;4996975;28;20899;-62
2023/07/09 12:56:02;;;;;;;2.77;2.60;;;24.20;44.80;;;;;;4996845;28;20233;-63
2023/07/09 12:58:36;;;;;;;2.63;2.53;;;24.20;44.80;;;;;;4993071;28;20813;-62